sensor_id;sensor_type;location;lat;lon;timestamp;pressure;altitude;pressure_sealevel;temperature;humidity
57376;BME280;44805;45.048;5.062;2022-12-29T08:11:34;99946.66;;;7.27;100.00
57376;BME280;44805;45.048;5.062;2022-12-29T08:14:01;99943.31;;;7.36;100.00
57376;BME280;44805;45.048;5.062;2022-12-29T08:16:28;99934.53;;;7.26;100.00
57376;BME280;44805;45.048;5.062;2022-12-29T08:18:53;99891.56;;;7.17;100.00
57376;BME280;44805;45.048;5.062;2022-12-29T08:24:46;99854.69;;;7.09;100.00
57376;BME280;44805;45.048;5.062;2022-12-29T08:27:13;99875.84;;;7.28;100.00
57376;BME280;44805;45.048;5.062;2022-12-29T08:29:38;99867.38;;;7.25;100.00
57376;BME280;44805;45.048;5.062;2022-12-29T08:32:04;99930.03;;;7.60;100.00
57376;BME280;44805;45.048;5.062;2022-12-29T08:34:31;99868.94;;;7.27;100.00
57376;BME280;44805;45.048;5.062;2022-12-29T08:40:05;99963.81;;;8.27;100.00
57376;BME280;44805;45.048;5.062;2022-12-29T08:42:51;99907.84;;;7.96;100.00
57376;BME280;44805;45.048;5.062;2022-12-29T08:45:34;99977.94;;;8.36;100.00
57376;BME280;44805;45.048;5.062;2022-12-29T08:48:05;99878.25;;;7.52;100.00
57376;BME280;44805;45.048;5.062;2022-12-29T08:50:32;99980.56;;;8.15;100.00
57376;BME280;44805;45.048;5.062;2022-12-29T08:59:49;100045.44;;;8.34;100.00
57376;BME280;44805;45.048;5.062;2022-12-29T09:02:15;99894.88;;;7.63;100.00
57376;BME280;44805;45.048;5.062;2022-12-29T09:04:43;99891.31;;;7.64;100.00
57376;BME280;44805;45.048;5.062;2022-12-29T09:10:43;99975.53;;;8.44;100.00
57376;BME280;44805;45.048;5.062;2022-12-29T09:13:30;100036.31;;;8.91;100.00
57376;BME280;44805;45.048;5.062;2022-12-29T09:16:22;99878.56;;;7.91;100.00
57376;BME280;44805;45.048;5.062;2022-12-29T09:26:20;100052.72;;;9.15;100.00
57376;BME280;44805;45.048;5.062;2022-12-29T09:33:00;99921.38;;;8.43;100.00
57376;BME280;44805;45.048;5.062;2022-12-29T09:35:28;99994.59;;;8.98;100.00
57376;BME280;44805;45.048;5.062;2022-12-29T09:37:54;100014.50;;;9.41;100.00
57376;BME280;44805;45.048;5.062;2022-12-29T09:40:38;99909.72;;;8.98;100.00
57376;BME280;44805;45.048;5.062;2022-12-29T10:47:41;99891.66;;;12.03;90.41
57376;BME280;44805;45.048;5.062;2022-12-29T10:50:16;99816.66;;;11.62;88.55
57376;BME280;44805;45.048;5.062;2022-12-29T11:22:38;99883.31;;;12.68;84.02
57376;BME280;44805;45.048;5.062;2022-12-29T11:25:48;99846.81;;;12.64;82.48
57376;BME280;44805;45.048;5.062;2022-12-29T14:30:52;99682.50;;;12.44;88.58
57376;BME280;44805;45.048;5.062;2022-12-29T14:33:20;99692.25;;;12.43;88.50
57376;BME280;44805;45.048;5.062;2022-12-29T14:35:52;99693.72;;;12.37;88.56
57376;BME280;44805;45.048;5.062;2022-12-29T14:38:26;99680.53;;;12.46;88.40
57376;BME280;44805;45.048;5.062;2022-12-29T14:40:52;99691.56;;;12.33;88.87
57376;BME280;44805;45.048;5.062;2022-12-29T15:28:11;99715.19;;;12.00;88.82
57376;BME280;44805;45.048;5.062;2022-12-29T15:31:04;99840.94;;;12.86;88.46
57376;BME280;44805;45.048;5.062;2022-12-29T15:33:39;99716.16;;;11.91;89.10
57376;BME280;44805;45.048;5.062;2022-12-29T15:36:29;99767.94;;;12.26;89.26
57376;BME280;44805;45.048;5.062;2022-12-29T15:39:38;99725.59;;;12.02;89.79
57376;BME280;44805;45.048;5.062;2022-12-29T15:45:20;99700.09;;;11.84;89.47
57376;BME280;44805;45.048;5.062;2022-12-29T15:47:58;99834.91;;;12.59;90.78
57376;BME280;44805;45.048;5.062;2022-12-29T15:50:32;99695.56;;;11.68;91.18
57376;BME280;44805;45.048;5.062;2022-12-29T15:53:18;99832.41;;;12.50;92.78
57376;BME280;44805;45.048;5.062;2022-12-29T16:15:12;99725.84;;;11.90;94.42
57376;BME280;44805;45.048;5.062;2022-12-29T16:18:11;99686.63;;;11.61;94.65
57376;BME280;44805;45.048;5.062;2022-12-29T16:20:41;99718.19;;;11.79;95.02
57376;BME280;44805;45.048;5.062;2022-12-29T16:23:18;99666.09;;;11.47;95.21
57376;BME280;44805;45.048;5.062;2022-12-29T16:29:11;99771.28;;;12.02;95.56
57376;BME280;44805;45.048;5.062;2022-12-29T16:31:58;99790.25;;;12.06;96.53
57376;BME280;44805;45.048;5.062;2022-12-29T16:38:06;99698.81;;;11.36;97.60
57376;BME280;44805;45.048;5.062;2022-12-29T16:44:17;99811.72;;;12.11;98.12
57376;BME280;44805;45.048;5.062;2022-12-29T17:31:06;99811.00;;;12.01;100.00
57376;BME280;44805;45.048;5.062;2022-12-29T17:33:52;99702.81;;;11.40;100.00
57376;BME280;44805;45.048;5.062;2022-12-29T17:36:47;99663.09;;;11.16;100.00
57376;BME280;44805;45.048;5.062;2022-12-29T18:56:03;99701.00;;;10.97;100.00
57376;BME280;44805;45.048;5.062;2022-12-29T18:58:59;99715.44;;;11.11;100.00
57376;BME280;44805;45.048;5.062;2022-12-29T19:22:32;99731.09;;;10.94;100.00
57376;BME280;44805;45.048;5.062;2022-12-29T20:09:49;99790.47;;;11.42;100.00
57376;BME280;44805;45.048;5.062;2022-12-29T20:16:11;99769.25;;;11.26;100.00
57376;BME280;44805;45.048;5.062;2022-12-29T22:19:29;99881.78;;;10.98;100.00
57376;BME280;44805;45.048;5.062;2022-12-29T22:22:01;99826.00;;;10.57;100.00
57376;BME280;44805;45.048;5.062;2022-12-29T22:24:38;99822.56;;;10.56;100.00
57376;BME280;44805;45.048;5.062;2022-12-29T22:27:16;99873.78;;;10.90;100.00
57376;BME280;44805;45.048;5.062;2022-12-29T22:29:50;99909.03;;;11.06;100.00
57376;BME280;44805;45.048;5.062;2022-12-29T22:32:23;99902.13;;;11.05;100.00
57376;BME280;44805;45.048;5.062;2022-12-29T22:34:54;99947.03;;;11.32;100.00
57376;BME280;44805;45.048;5.062;2022-12-29T22:37:29;99819.09;;;10.56;100.00
57376;BME280;44805;45.048;5.062;2022-12-29T22:40:07;99816.91;;;10.51;100.00
57376;BME280;44805;45.048;5.062;2022-12-29T22:46:04;99815.78;;;10.54;100.00
57376;BME280;44805;45.048;5.062;2022-12-29T22:48:35;99890.69;;;10.97;100.00
57376;BME280;44805;45.048;5.062;2022-12-29T22:51:02;99913.09;;;11.01;100.00
57376;BME280;44805;45.048;5.062;2022-12-29T22:53:28;99820.59;;;10.58;100.00
57376;BME280;44805;45.048;5.062;2022-12-29T22:59:21;99932.53;;;11.45;100.00
57376;BME280;44805;45.048;5.062;2022-12-29T23:01:54;99912.78;;;11.49;100.00
57376;BME280;44805;45.048;5.062;2022-12-29T23:04:26;99795.22;;;10.85;100.00
57376;BME280;44805;45.048;5.062;2022-12-29T23:06:52;99787.91;;;10.79;100.00
57376;BME280;44805;45.048;5.062;2022-12-29T23:09:21;99837.44;;;10.93;100.00
57376;BME280;44805;45.048;5.062;2022-12-29T23:15:30;99921.19;;;11.45;100.00
57376;BME280;44805;45.048;5.062;2022-12-29T23:17:56;99915.66;;;11.38;100.00
57376;BME280;44805;45.048;5.062;2022-12-29T23:20:22;99789.28;;;10.55;100.00
57376;BME280;44805;45.048;5.062;2022-12-29T23:22:49;99779.13;;;10.60;100.00
57376;BME280;44805;45.048;5.062;2022-12-29T23:25:15;99791.34;;;10.61;100.00
57376;BME280;44805;45.048;5.062;2022-12-29T23:28:04;99908.44;;;11.40;100.00
57376;BME280;44805;45.048;5.062;2022-12-29T23:30:39;99781.78;;;10.60;100.00
57376;BME280;44805;45.048;5.062;2022-12-29T23:33:05;99760.44;;;10.63;100.00
57376;BME280;44805;45.048;5.062;2022-12-29T23:35:35;99749.53;;;10.58;100.00
57376;BME280;44805;45.048;5.062;2022-12-29T23:38:10;99751.56;;;10.64;100.00
57376;BME280;44805;45.048;5.062;2022-12-29T23:40:38;99752.81;;;10.60;100.00
57376;BME280;44805;45.048;5.062;2022-12-29T23:43:47;99879.06;;;11.35;100.00
57376;BME280;44805;45.048;5.062;2022-12-29T23:46:23;99736.56;;;10.47;100.00
57376;BME280;44805;45.048;5.062;2022-12-29T23:48:55;99883.25;;;11.28;100.00
57376;BME280;44805;45.048;5.062;2022-12-29T23:51:22;99885.59;;;11.31;100.00
57376;BME280;44805;45.048;5.062;2022-12-29T23:53:48;99754.44;;;10.43;100.00
57376;BME280;44805;45.048;5.062;2022-12-29T23:56:31;99788.41;;;10.64;100.00
57376;BME280;44805;45.048;5.062;2022-12-29T23:59:07;99880.56;;;11.20;100.00
